Time;durP1;ratioP1;P1;durP2;ratioP2;P2;SDS_P1;SDS_P2;PMS_P1;PMS_P2;Temp;Humidity;BMP_temperature;BMP_pressure;BME280_temperature;BME280_humidity;BME280_pressure;Samples;Min_cycle;Max_cycle;Signal;HPM_P1;HPM_P2
2023/12/23 00:02:08;;;;;;;11.00;3.83;;;;;;;;;;5104702;28;20050;-66
2023/12/23 00:04:34;;;;;;;9.35;2.70;;;;;;;;;;5105372;28;20372;-65
2023/12/23 00:07:00;;;;;;;10.60;2.97;;;;;;;;;;5101941;28;20146;-65
2023/12/23 00:09:27;;;;;;;10.52;3.03;;;;;;;;;;5105115;28;20031;-66
2023/12/23 00:11:54;;;;;;;6.45;2.95;;;;;;;;;;5103898;28;20214;-66
2023/12/23 00:14:20;;;;;;;10.38;2.95;;;;;;;;;;5103401;28;20040;-65
2023/12/23 00:16:47;;;;;;;9.48;3.47;;;;;;;;;;5103531;28;20032;-65
2023/12/23 00:19:13;;;;;;;6.75;2.75;;;;;;;;;;5102985;28;20035;-64
2023/12/23 00:21:39;;;;;;;13.07;3.95;;;;;;;;;;5100535;28;20043;-65
2023/12/23 00:24:05;;;;;;;11.75;3.88;;;;;;;;;;5122392;27;20134;-64
2023/12/23 00:26:32;;;;;;;5.13;2.15;;;;;;;;;;5124153;27;20128;-65
2023/12/23 00:28:58;;;;;;;14.88;3.28;;;;;;;;;;5104365;27;20400;-64
2023/12/23 00:31:24;;;;;;;6.15;2.63;;;;;;;;;;5124779;27;20050;-66
2023/12/23 00:33:50;;;;;;;8.05;3.03;;;;;;;;;;5125604;27;20039;-64
2023/12/23 00:36:16;;;;;;;7.63;2.47;;;;;;;;;;5123574;27;20167;-65
2023/12/23 00:38:42;;;;;;;7.82;2.83;;;;;;;;;;5124654;27;20027;-65
2023/12/23 00:41:08;;;;;;;8.35;3.33;;;;;;;;;;5121811;27;20486;-65
2023/12/23 00:43:34;;;;;;;8.13;3.00;;;;;;;;;;5123565;27;20039;-66
2023/12/23 00:46:01;;;;;;;7.80;2.55;;;;;;;;;;5124098;27;20043;-65
2023/12/23 00:48:27;;;;;;;10.07;2.88;;;;;;;;;;5125331;27;20047;-66
2023/12/23 00:50:53;;;;;;;10.73;3.72;;;;;;;;;;5124432;27;20421;-65
2023/12/23 00:53:19;;;;;;;12.90;3.13;;;;;;;;;;5124321;27;20035;-66
2023/12/23 00:55:46;;;;;;;11.82;2.92;;;;;;;;;;5124630;27;20043;-65
2023/12/23 00:58:12;;;;;;;8.77;2.83;;;;;;;;;;5124767;27;20336;-65
2023/12/23 01:00:38;;;;;;;7.15;3.08;;;;;;;;;;5125815;27;20039;-65
2023/12/23 01:03:04;;;;;;;11.60;3.33;;;;;;;;;;5124736;27;20058;-66
2023/12/23 01:05:30;;;;;;;11.00;2.70;;;;;;;;;;5125118;27;20054;-66
2023/12/23 01:07:56;;;;;;;6.55;2.65;;;;;;;;;;5124050;27;20494;-66
2023/12/23 01:10:25;;;;;;;9.68;3.03;;;;;;;;;;5125232;27;20147;-66
2023/12/23 01:12:51;;;;;;;7.65;2.20;;;;;;;;;;5124491;27;20066;-65
2023/12/23 01:15:17;;;;;;;12.48;2.90;;;;;;;;;;5124842;27;20667;-65
2023/12/23 01:17:43;;;;;;;8.52;2.17;;;;;;;;;;5124662;27;20039;-66
2023/12/23 01:20:10;;;;;;;8.10;2.45;;;;;;;;;;5124104;27;20047;-65
2023/12/23 01:22:36;;;;;;;8.52;2.40;;;;;;;;;;5123724;27;20135;-65
2023/12/23 01:25:02;;;;;;;7.95;2.50;;;;;;;;;;5123360;27;20133;-65
2023/12/23 01:27:29;;;;;;;6.10;3.22;;;;;;;;;;5122400;27;20073;-65
2023/12/23 01:29:55;;;;;;;7.55;2.50;;;;;;;;;;5123791;27;20051;-65
2023/12/23 01:32:21;;;;;;;6.05;2.65;;;;;;;;;;5125057;27;20127;-66
2023/12/23 01:34:50;;;;;;;13.27;3.38;;;;;;;;;;5124424;27;20042;-66
2023/12/23 01:37:16;;;;;;;12.40;3.72;;;;;;;;;;5123179;27;20403;-66
2023/12/23 01:39:42;;;;;;;6.22;2.03;;;;;;;;;;5124562;27;20134;-66
2023/12/23 01:42:08;;;;;;;4.40;1.80;;;;;;;;;;5123947;27;20070;-64
2023/12/23 01:44:34;;;;;;;12.38;3.15;;;;;;;;;;5123901;27;20386;-65
2023/12/23 01:47:02;;;;;;;6.07;2.55;;;;;;;;;;5124447;27;20142;-65
2023/12/23 01:49:29;;;;;;;7.80;2.90;;;;;;;;;;5124173;27;20506;-65
2023/12/23 01:51:56;;;;;;;6.45;2.63;;;;;;;;;;5122257;27;20104;-65
2023/12/23 01:54:23;;;;;;;5.75;2.25;;;;;;;;;;5124077;27;20452;-65
2023/12/23 01:56:50;;;;;;;12.40;2.75;;;;;;;;;;5124046;27;20904;-65
2023/12/23 01:59:19;;;;;;;13.65;2.58;;;;;;;;;;5123975;27;20031;-65
2023/12/23 02:01:45;;;;;;;7.82;2.33;;;;;;;;;;5124496;27;20104;-66
2023/12/23 02:04:11;;;;;;;9.30;2.67;;;;;;;;;;5124017;27;20138;-65
2023/12/23 02:06:37;;;;;;;15.40;3.70;;;;;;;;;;5122481;27;20167;-65
2023/12/23 02:09:04;;;;;;;7.13;2.15;;;;;;;;;;5122450;27;20050;-66
2023/12/23 02:11:33;;;;;;;3.75;2.20;;;;;;;;;;5123341;27;20134;-66
2023/12/23 02:14:01;;;;;;;12.63;2.53;;;;;;;;;;5102874;27;20370;-66
2023/12/23 02:16:28;;;;;;;6.22;2.08;;;;;;;;;;5123225;27;20091;-65
2023/12/23 02:18:54;;;;;;;5.47;2.10;;;;;;;;;;5122640;27;20039;-66
2023/12/23 02:21:20;;;;;;;7.30;1.77;;;;;;;;;;5122196;27;20344;-66
2023/12/23 02:23:46;;;;;;;5.30;1.90;;;;;;;;;;5101511;28;20062;-66
2023/12/23 02:26:13;;;;;;;7.63;2.15;;;;;;;;;;5101852;28;20048;-66
2023/12/23 02:28:41;;;;;;;4.30;2.05;;;;;;;;;;5102479;28;20050;-66
2023/12/23 02:31:07;;;;;;;6.97;2.58;;;;;;;;;;5102020;27;20075;-65
2023/12/23 02:33:34;;;;;;;6.75;1.88;;;;;;;;;;5103167;28;20043;-66
2023/12/23 02:36:00;;;;;;;8.35;1.88;;;;;;;;;;5101085;28;20034;-66
2023/12/23 02:38:26;;;;;;;4.22;2.13;;;;;;;;;;5103176;28;20039;-65
2023/12/23 02:40:52;;;;;;;8.95;2.42;;;;;;;;;;5101326;28;20116;-66
2023/12/23 02:43:18;;;;;;;10.18;2.67;;;;;;;;;;5102578;28;20862;-66
2023/12/23 02:45:45;;;;;;;6.82;2.05;;;;;;;;;;5100243;28;20051;-65
2023/12/23 02:48:11;;;;;;;5.97;2.40;;;;;;;;;;5102719;28;20134;-66
2023/12/23 02:50:38;;;;;;;8.73;2.30;;;;;;;;;;5101975;28;20684;-66
2023/12/23 02:53:07;;;;;;;5.72;1.80;;;;;;;;;;5102163;28;20043;-66
2023/12/23 02:55:33;;;;;;;5.10;2.25;;;;;;;;;;5102247;28;20073;-65
2023/12/23 02:58:01;;;;;;;9.55;2.33;;;;;;;;;;5101582;28;20058;-66
2023/12/23 03:00:27;;;;;;;4.47;2.03;;;;;;;;;;5101345;28;20265;-66
2023/12/23 03:02:53;;;;;;;4.90;1.92;;;;;;;;;;5102777;28;20494;-66
2023/12/23 03:05:19;;;;;;;5.70;2.10;;;;;;;;;;5105144;28;20087;-66
2023/12/23 03:07:47;;;;;;;4.38;1.55;;;;;;;;;;5104923;28;20505;-66
2023/12/23 03:10:14;;;;;;;4.30;2.00;;;;;;;;;;5104403;28;20403;-66
2023/12/23 03:12:40;;;;;;;3.70;1.58;;;;;;;;;;5105740;28;20038;-66
2023/12/23 03:15:07;;;;;;;9.05;2.47;;;;;;;;;;5107049;28;20122;-66
2023/12/23 03:17:33;;;;;;;6.32;1.88;;;;;;;;;;5106026;28;20051;-66
2023/12/23 03:20:00;;;;;;;8.23;2.25;;;;;;;;;;5105697;28;20067;-65
2023/12/23 03:22:26;;;;;;;7.75;2.30;;;;;;;;;;5111760;27;20066;-65
2023/12/23 03:24:52;;;;;;;7.00;2.35;;;;;;;;;;5126907;27;20047;-65
2023/12/23 03:27:19;;;;;;;6.13;2.22;;;;;;;;;;5126932;27;20054;-65
2023/12/23 03:29:45;;;;;;;4.50;1.90;;;;;;;;;;5126416;27;20548;-65
2023/12/23 03:32:11;;;;;;;4.97;2.33;;;;;;;;;;5126120;27;20043;-66
2023/12/23 03:34:37;;;;;;;7.45;2.15;;;;;;;;;;5107074;27;20066;-66
2023/12/23 03:37:04;;;;;;;4.03;1.50;;;;;;;;;;5126382;27;20435;-65
2023/12/23 03:39:30;;;;;;;9.10;3.22;;;;;;;;;;5106638;27;20043;-65
2023/12/23 03:41:56;;;;;;;9.10;2.50;;;;;;;;;;5126807;27;20494;-65
2023/12/23 03:44:22;;;;;;;3.85;1.45;;;;;;;;;;5106568;27;20087;-66
2023/12/23 03:46:48;;;;;;;3.55;1.52;;;;;;;;;;5126270;27;20413;-66
2023/12/23 03:49:14;;;;;;;5.57;2.10;;;;;;;;;;5124384;27;20039;-66
2023/12/23 03:51:40;;;;;;;3.95;2.05;;;;;;;;;;5125294;27;20513;-66
2023/12/23 03:54:06;;;;;;;3.75;1.50;;;;;;;;;;5125540;27;20039;-66
2023/12/23 03:56:32;;;;;;;5.82;2.42;;;;;;;;;;5106816;27;20068;-66
2023/12/23 03:58:58;;;;;;;3.88;2.00;;;;;;;;;;5125821;27;20046;-65
2023/12/23 04:01:24;;;;;;;3.83;1.60;;;;;;;;;;5126979;27;20453;-66
2023/12/23 04:03:52;;;;;;;4.40;1.48;;;;;;;;;;5107861;27;20104;-66
2023/12/23 04:06:18;;;;;;;4.90;2.15;;;;;;;;;;5125277;27;20046;-65
2023/12/23 04:08:44;;;;;;;5.45;1.52;;;;;;;;;;5126199;27;20072;-65
2023/12/23 04:11:10;;;;;;;10.93;2.22;;;;;;;;;;5126147;27;20050;-66
2023/12/23 04:13:37;;;;;;;7.35;2.30;;;;;;;;;;5105888;27;20514;-66
2023/12/23 04:16:04;;;;;;;4.95;1.60;;;;;;;;;;5124869;27;20047;-65
2023/12/23 04:18:31;;;;;;;4.07;2.17;;;;;;;;;;5125303;27;20059;-65
2023/12/23 04:20:57;;;;;;;7.65;1.50;;;;;;;;;;5124930;27;20051;-65
2023/12/23 04:23:24;;;;;;;4.60;1.65;;;;;;;;;;5105526;27;20131;-66
2023/12/23 04:25:50;;;;;;;6.65;1.58;;;;;;;;;;5126015;27;20046;-66
2023/12/23 04:28:20;;;;;;;4.15;1.50;;;;;;;;;;5123577;27;20159;-65
2023/12/23 04:30:47;;;;;;;3.53;1.55;;;;;;;;;;5122927;27;20055;-65
2023/12/23 04:33:13;;;;;;;5.53;1.63;;;;;;;;;;5124660;27;20054;-66
2023/12/23 04:35:39;;;;;;;3.60;1.50;;;;;;;;;;5124739;27;20038;-66
2023/12/23 04:38:06;;;;;;;5.10;1.92;;;;;;;;;;5124744;27;20520;-65
2023/12/23 04:40:32;;;;;;;2.75;1.20;;;;;;;;;;5125367;27;20167;-65
2023/12/23 04:42:58;;;;;;;5.85;2.28;;;;;;;;;;5125419;27;20080;-66
2023/12/23 04:45:25;;;;;;;2.80;1.10;;;;;;;;;;5125191;27;20533;-65
2023/12/23 04:47:51;;;;;;;4.45;1.50;;;;;;;;;;5124744;27;20051;-65
2023/12/23 04:50:17;;;;;;;3.05;1.67;;;;;;;;;;5124893;27;20036;-66
2023/12/23 04:52:43;;;;;;;3.83;1.17;;;;;;;;;;5104730;27;20043;-65
2023/12/23 04:55:09;;;;;;;3.72;1.30;;;;;;;;;;5103099;27;20336;-65
2023/12/23 04:57:35;;;;;;;3.80;1.67;;;;;;;;;;5124902;27;20043;-65
2023/12/23 05:00:05;;;;;;;3.05;1.63;;;;;;;;;;5124927;27;20511;-64
2023/12/23 05:02:32;;;;;;;5.05;1.77;;;;;;;;;;5120570;27;20047;-65
2023/12/23 05:04:58;;;;;;;3.35;1.30;;;;;;;;;;5121512;27;20121;-65
2023/12/23 05:07:25;;;;;;;4.15;1.50;;;;;;;;;;5121611;27;20061;-66
2023/12/23 05:09:51;;;;;;;3.67;1.45;;;;;;;;;;5102317;27;20039;-65
2023/12/23 05:12:17;;;;;;;2.08;1.20;;;;;;;;;;5122291;27;20035;-65
2023/12/23 05:14:43;;;;;;;2.58;0.90;;;;;;;;;;5122022;27;20443;-65
2023/12/23 05:17:09;;;;;;;2.10;1.10;;;;;;;;;;5122062;27;20126;-65
2023/12/23 05:19:40;;;;;;;1.35;0.90;;;;;;;;;;5102554;27;20490;-66
2023/12/23 05:22:06;;;;;;;2.72;1.20;;;;;;;;;;5119684;27;20087;-66
2023/12/23 05:24:32;;;;;;;5.05;1.17;;;;;;;;;;5120348;27;20043;-65
2023/12/23 05:26:58;;;;;;;4.85;0.90;;;;;;;;;;5121073;27;20077;-65
2023/12/23 05:29:25;;;;;;;2.38;1.20;;;;;;;;;;5121982;27;21364;-65
2023/12/23 05:31:51;;;;;;;4.22;1.20;;;;;;;;;;5102660;27;20528;-66
2023/12/23 05:34:17;;;;;;;2.03;1.25;;;;;;;;;;5122430;27;20043;-67
2023/12/23 05:36:44;;;;;;;1.38;0.80;;;;;;;;;;5120843;27;20170;-66
2023/12/23 05:39:11;;;;;;;2.85;0.90;;;;;;;;;;5122514;27;20547;-66
2023/12/23 05:41:37;;;;;;;1.38;0.80;;;;;;;;;;5099687;27;20043;-66
2023/12/23 05:44:03;;;;;;;1.88;0.90;;;;;;;;;;5120637;27;20046;-66
2023/12/23 05:46:29;;;;;;;3.42;1.27;;;;;;;;;;5101861;27;20054;-66
2023/12/23 05:48:55;;;;;;;4.55;1.17;;;;;;;;;;5121324;27;20152;-66
2023/12/23 05:51:21;;;;;;;3.83;1.05;;;;;;;;;;5120368;27;20046;-66
2023/12/23 05:53:47;;;;;;;3.13;0.77;;;;;;;;;;5121014;27;20673;-66
2023/12/23 05:56:13;;;;;;;1.33;0.63;;;;;;;;;;5121878;27;20074;-65
2023/12/23 05:58:40;;;;;;;4.13;1.05;;;;;;;;;;5101789;27;20039;-66
2023/12/23 06:01:06;;;;;;;4.10;0.90;;;;;;;;;;5101978;27;20055;-66
2023/12/23 06:03:32;;;;;;;1.80;0.73;;;;;;;;;;5119565;27;20056;-66
2023/12/23 06:05:58;;;;;;;5.20;0.82;;;;;;;;;;5101055;27;20051;-66
2023/12/23 06:08:25;;;;;;;2.88;0.90;;;;;;;;;;5119991;27;20043;-65
2023/12/23 06:10:51;;;;;;;2.92;0.80;;;;;;;;;;5100688;27;20043;-66
2023/12/23 06:13:17;;;;;;;1.42;0.70;;;;;;;;;;5101821;27;20339;-65
2023/12/23 06:15:43;;;;;;;1.15;0.63;;;;;;;;;;5101372;27;20426;-66
2023/12/23 06:18:09;;;;;;;2.33;0.80;;;;;;;;;;5121203;27;20884;-67
2023/12/23 06:20:35;;;;;;;3.67;1.15;;;;;;;;;;5119562;27;20442;-65
2023/12/23 06:23:01;;;;;;;0.68;0.43;;;;;;;;;;5101439;27;20069;-66
2023/12/23 06:25:29;;;;;;;2.60;0.70;;;;;;;;;;5120633;27;20096;-65
2023/12/23 06:27:55;;;;;;;1.42;0.70;;;;;;;;;;5121369;27;20047;-65
2023/12/23 06:30:22;;;;;;;1.85;0.50;;;;;;;;;;5120654;27;20525;-66
2023/12/23 06:32:48;;;;;;;0.75;0.60;;;;;;;;;;5121221;27;20050;-65
2023/12/23 06:35:14;;;;;;;0.47;0.40;;;;;;;;;;5118986;27;20043;-65
2023/12/23 06:37:40;;;;;;;1.65;0.65;;;;;;;;;;5099727;27;20043;-65
2023/12/23 06:40:07;;;;;;;1.02;0.55;;;;;;;;;;5118018;27;20072;-66
2023/12/23 06:42:33;;;;;;;0.93;0.45;;;;;;;;;;5065690;27;20054;-67
2023/12/23 06:44:59;;;;;;;1.13;0.68;;;;;;;;;;5118534;27;20548;-65
2023/12/23 06:47:25;;;;;;;1.60;0.75;;;;;;;;;;5117205;27;20050;-66
2023/12/23 06:49:52;;;;;;;1.65;0.60;;;;;;;;;;5119538;27;20489;-65
2023/12/23 06:52:18;;;;;;;1.67;0.60;;;;;;;;;;5119529;27;20073;-66
2023/12/23 06:54:44;;;;;;;1.83;0.73;;;;;;;;;;5120641;27;20122;-65
2023/12/23 06:57:10;;;;;;;0.55;0.50;;;;;;;;;;5120170;27;20518;-65
2023/12/23 06:59:36;;;;;;;1.92;0.60;;;;;;;;;;5120825;27;20050;-65
2023/12/23 07:02:02;;;;;;;1.00;0.50;;;;;;;;;;5100542;28;20066;-65
2023/12/23 07:04:28;;;;;;;1.42;0.55;;;;;;;;;;5120925;28;20078;-66
2023/12/23 07:06:54;;;;;;;1.15;0.60;;;;;;;;;;5118729;27;20586;-65
2023/12/23 07:09:20;;;;;;;1.10;0.60;;;;;;;;;;5120377;28;20123;-64
2023/12/23 07:11:46;;;;;;;1.33;0.70;;;;;;;;;;5119458;27;20047;-64
2023/12/23 07:14:13;;;;;;;1.80;0.55;;;;;;;;;;5120152;28;20385;-65
2023/12/23 07:16:41;;;;;;;1.42;0.85;;;;;;;;;;5119615;28;20480;-64
2023/12/23 07:19:07;;;;;;;2.92;1.27;;;;;;;;;;5119404;28;20039;-64
2023/12/23 07:21:33;;;;;;;2.33;0.70;;;;;;;;;;5118448;28;20142;-65
2023/12/23 07:24:00;;;;;;;0.93;0.50;;;;;;;;;;5120110;27;20501;-65
2023/12/23 07:26:26;;;;;;;0.30;0.30;;;;;;;;;;5119711;28;20058;-65
2023/12/23 07:28:53;;;;;;;4.28;0.60;;;;;;;;;;5120110;28;20145;-66
2023/12/23 07:31:19;;;;;;;0.47;0.47;;;;;;;;;;5119936;28;20470;-66
2023/12/23 07:33:46;;;;;;;0.63;0.52;;;;;;;;;;5117174;28;20035;-66
2023/12/23 07:36:12;;;;;;;1.52;0.93;;;;;;;;;;5118088;27;20075;-66
2023/12/23 07:38:38;;;;;;;0.95;0.43;;;;;;;;;;5100747;28;20039;-67
2023/12/23 07:41:07;;;;;;;0.43;0.40;;;;;;;;;;5118367;27;20045;-66
2023/12/23 07:43:33;;;;;;;0.95;0.60;;;;;;;;;;5119558;28;21293;-66
2023/12/23 07:45:59;;;;;;;0.82;0.50;;;;;;;;;;5118782;28;20382;-66
2023/12/23 07:48:25;;;;;;;1.38;0.50;;;;;;;;;;5119377;27;20083;-66
2023/12/23 07:50:51;;;;;;;0.38;0.38;;;;;;;;;;5118247;27;20170;-66
2023/12/23 07:53:17;;;;;;;2.03;0.45;;;;;;;;;;5122922;27;20039;-66
2023/12/23 07:55:44;;;;;;;1.50;0.63;;;;;;;;;;5121474;27;20082;-66
2023/12/23 07:58:10;;;;;;;2.15;0.65;;;;;;;;;;5123722;27;20035;-66
2023/12/23 08:00:36;;;;;;;0.55;0.40;;;;;;;;;;5121735;27;20047;-65
2023/12/23 08:03:02;;;;;;;0.50;0.50;;;;;;;;;;5104492;27;20252;-66
2023/12/23 08:05:31;;;;;;;0.85;0.60;;;;;;;;;;5120916;27;20053;-66
2023/12/23 08:07:58;;;;;;;0.40;0.40;;;;;;;;;;5122454;27;20373;-65
2023/12/23 08:10:24;;;;;;;0.70;0.60;;;;;;;;;;5104519;27;20413;-66
2023/12/23 08:12:50;;;;;;;0.43;0.40;;;;;;;;;;5125150;27;20023;-66
2023/12/23 08:15:16;;;;;;;0.52;0.40;;;;;;;;;;5124555;27;20393;-66
2023/12/23 08:17:44;;;;;;;0.93;0.60;;;;;;;;;;5123780;27;20027;-66
2023/12/23 08:20:10;;;;;;;0.52;0.43;;;;;;;;;;5118406;27;20054;-66
2023/12/23 08:22:36;;;;;;;0.50;0.40;;;;;;;;;;5121128;27;20050;-66
2023/12/23 08:25:03;;;;;;;1.17;0.30;;;;;;;;;;5122012;27;20047;-66
2023/12/23 08:27:29;;;;;;;1.27;0.60;;;;;;;;;;5121066;27;20035;-65
2023/12/23 08:29:55;;;;;;;1.70;0.50;;;;;;;;;;5102984;27;20404;-67
2023/12/23 08:32:21;;;;;;;1.20;0.63;;;;;;;;;;5123230;27;20042;-66
2023/12/23 08:34:47;;;;;;;0.73;0.50;;;;;;;;;;5115231;27;20043;-67
2023/12/23 08:37:13;;;;;;;0.57;0.50;;;;;;;;;;5117825;27;20121;-64
2023/12/23 08:39:39;;;;;;;1.05;0.40;;;;;;;;;;5100472;27;20108;-65
2023/12/23 08:42:05;;;;;;;0.65;0.40;;;;;;;;;;5085753;27;20039;-66
2023/12/23 08:44:32;;;;;;;0.30;0.30;;;;;;;;;;5120835;27;20633;-65
2023/12/23 08:46:58;;;;;;;1.17;0.52;;;;;;;;;;5121290;27;20096;-67
2023/12/23 08:49:24;;;;;;;2.22;0.50;;;;;;;;;;5120370;27;20043;-66
2023/12/23 08:51:50;;;;;;;0.80;0.43;;;;;;;;;;5121055;27;20047;-66
2023/12/23 08:54:16;;;;;;;2.03;0.68;;;;;;;;;;5102441;27;20035;-65
2023/12/23 08:56:42;;;;;;;0.80;0.40;;;;;;;;;;5101959;27;20039;-65
2023/12/23 08:59:08;;;;;;;1.10;0.65;;;;;;;;;;5121368;27;20078;-65
2023/12/23 09:01:34;;;;;;;0.40;0.40;;;;;;;;;;5101611;27;20166;-65
2023/12/23 09:04:00;;;;;;;0.52;0.40;;;;;;;;;;5122985;27;20043;-65
2023/12/23 09:06:26;;;;;;;0.80;0.43;;;;;;;;;;5121311;27;20043;-65
2023/12/23 09:08:57;;;;;;;1.15;0.70;;;;;;;;;;5121584;27;20035;-66
2023/12/23 09:11:23;;;;;;;1.50;1.05;;;;;;;;;;5119675;27;20073;-66
2023/12/23 09:13:49;;;;;;;1.70;0.60;;;;;;;;;;5121424;27;20130;-65
2023/12/23 09:16:16;;;;;;;1.08;0.60;;;;;;;;;;5121413;27;20122;-66
2023/12/23 09:18:42;;;;;;;3.28;0.75;;;;;;;;;;5121005;27;20277;-66
2023/12/23 09:21:08;;;;;;;0.45;0.45;;;;;;;;;;5118019;27;20346;-66
2023/12/23 09:23:35;;;;;;;0.52;0.43;;;;;;;;;;5098767;27;20471;-66
2023/12/23 09:26:01;;;;;;;0.57;0.52;;;;;;;;;;5118479;27;20308;-66
2023/12/23 09:28:27;;;;;;;0.50;0.50;;;;;;;;;;5096933;27;20035;-67
2023/12/23 09:30:53;;;;;;;1.02;0.82;;;;;;;;;;5095479;27;20050;-66
2023/12/23 09:33:19;;;;;;;1.17;0.88;;;;;;;;;;5119853;27;20126;-65
2023/12/23 09:35:45;;;;;;;1.80;0.90;;;;;;;;;;5120118;27;20075;-67
2023/12/23 09:38:12;;;;;;;0.73;0.70;;;;;;;;;;5121412;27;20043;-66
2023/12/23 09:40:38;;;;;;;1.38;0.60;;;;;;;;;;5120830;27;20055;-67
2023/12/23 09:43:05;;;;;;;1.13;0.88;;;;;;;;;;5119647;27;20085;-66
2023/12/23 09:45:33;;;;;;;0.88;0.63;;;;;;;;;;5117787;27;20729;-67
2023/12/23 09:48:00;;;;;;;0.77;0.77;;;;;;;;;;5100028;27;20419;-65
2023/12/23 09:50:26;;;;;;;1.27;0.95;;;;;;;;;;5115757;27;20047;-66
2023/12/23 09:52:52;;;;;;;1.00;0.60;;;;;;;;;;5118730;27;20065;-68
2023/12/23 09:55:19;;;;;;;1.35;0.90;;;;;;;;;;5100470;27;20067;-67
2023/12/23 09:57:45;;;;;;;1.05;0.70;;;;;;;;;;5119950;27;20354;-67
2023/12/23 10:00:12;;;;;;;0.82;0.63;;;;;;;;;;5119553;27;20047;-67
2023/12/23 10:02:38;;;;;;;1.42;0.98;;;;;;;;;;5118088;27;20059;-66
2023/12/23 10:05:05;;;;;;;1.70;0.80;;;;;;;;;;5118851;27;20108;-66
2023/12/23 10:07:32;;;;;;;1.58;0.90;;;;;;;;;;5099435;27;20447;-66
2023/12/23 10:09:59;;;;;;;1.48;0.95;;;;;;;;;;5101101;27;20375;-65
2023/12/23 10:12:25;;;;;;;1.17;0.75;;;;;;;;;;5119954;27;20057;-65
2023/12/23 10:14:51;;;;;;;2.10;1.40;;;;;;;;;;5119940;27;20382;-68
2023/12/23 10:17:17;;;;;;;1.90;1.25;;;;;;;;;;5120083;27;20087;-67
2023/12/23 10:19:44;;;;;;;2.05;1.00;;;;;;;;;;5119349;27;20082;-66
2023/12/23 10:22:10;;;;;;;1.70;1.10;;;;;;;;;;5115964;27;20043;-66
2023/12/23 10:24:39;;;;;;;2.00;1.20;;;;;;;;;;5119761;27;20069;-66
2023/12/23 10:27:05;;;;;;;0.73;0.70;;;;;;;;;;5098416;27;20042;-65
2023/12/23 10:29:37;;;;;;;1.80;1.05;;;;;;;;;;5119017;27;20043;-66
2023/12/23 10:32:04;;;;;;;1.60;0.90;;;;;;;;;;5119313;27;20096;-66
2023/12/23 10:34:51;;;;;;;1.77;0.85;;;;;;;;;;5119411;27;20591;-66
2023/12/23 10:37:17;;;;;;;1.38;1.00;;;;;;;;;;5116845;27;20031;-66
2023/12/23 10:40:04;;;;;;;2.03;0.90;;;;;;;;;;5118388;27;20054;-66
2023/12/23 10:42:31;;;;;;;1.60;0.80;;;;;;;;;;5117344;27;20043;-66
2023/12/23 10:44:59;;;;;;;1.33;0.93;;;;;;;;;;5118491;27;20042;-66
2023/12/23 10:47:28;;;;;;;2.38;1.05;;;;;;;;;;5082633;27;20047;-66
2023/12/23 10:49:56;;;;;;;1.23;0.98;;;;;;;;;;5080829;27;20129;-66
2023/12/23 10:52:23;;;;;;;2.50;0.98;;;;;;;;;;5116764;27;20039;-65
2023/12/23 10:54:49;;;;;;;1.60;1.00;;;;;;;;;;5118307;27;20335;-66
2023/12/23 10:57:16;;;;;;;1.73;1.15;;;;;;;;;;5118901;27;20058;-65
2023/12/23 10:59:42;;;;;;;1.50;1.00;;;;;;;;;;5118801;27;20053;-66
2023/12/23 11:02:19;;;;;;;1.67;0.90;;;;;;;;;;5119697;27;20047;-66
2023/12/23 11:04:48;;;;;;;1.80;1.02;;;;;;;;;;5100931;27;20047;-65
2023/12/23 11:07:15;;;;;;;1.48;0.90;;;;;;;;;;5118526;27;20039;-65
2023/12/23 11:09:42;;;;;;;1.33;0.90;;;;;;;;;;5117734;28;20034;-66
2023/12/23 11:12:15;;;;;;;2.15;1.10;;;;;;;;;;5121165;28;20851;-67
2023/12/23 11:14:41;;;;;;;1.92;1.20;;;;;;;;;;5121243;28;20046;-65
2023/12/23 11:17:26;;;;;;;2.45;1.40;;;;;;;;;;5102448;28;20035;-66
2023/12/23 11:19:54;;;;;;;2.47;0.98;;;;;;;;;;5122146;28;20043;-65
2023/12/23 11:22:22;;;;;;;1.38;0.80;;;;;;;;;;5122257;27;20043;-65
2023/12/23 11:24:48;;;;;;;1.77;0.90;;;;;;;;;;5086656;27;20059;-66
2023/12/23 11:27:31;;;;;;;1.92;0.98;;;;;;;;;;5126768;27;20045;-65
2023/12/23 11:30:02;;;;;;;2.22;1.27;;;;;;;;;;5125417;27;20055;-65
2023/12/23 11:32:33;;;;;;;1.60;0.93;;;;;;;;;;5126818;27;20095;-66
2023/12/23 11:35:00;;;;;;;2.33;1.30;;;;;;;;;;5121104;27;20035;-65
2023/12/23 11:37:46;;;;;;;3.25;1.10;;;;;;;;;;5113428;27;20050;-66
2023/12/23 11:40:14;;;;;;;2.78;1.13;;;;;;;;;;5120837;27;20608;-65
2023/12/23 11:42:41;;;;;;;1.60;0.80;;;;;;;;;;5122681;27;20441;-65
2023/12/23 11:45:08;;;;;;;1.98;1.10;;;;;;;;;;5120292;27;20038;-68
2023/12/23 11:47:34;;;;;;;1.67;1.02;;;;;;;;;;5125228;27;20031;-67
2023/12/23 11:50:00;;;;;;;2.42;1.10;;;;;;;;;;5116688;27;20031;-66
2023/12/23 11:52:26;;;;;;;1.50;0.82;;;;;;;;;;5122529;27;20343;-66
2023/12/23 11:54:53;;;;;;;1.88;1.33;;;;;;;;;;5104674;27;20491;-67
2023/12/23 11:57:19;;;;;;;1.90;1.02;;;;;;;;;;5125357;27;20043;-66
2023/12/23 11:59:46;;;;;;;1.85;1.10;;;;;;;;;;5126196;27;20513;-66
2023/12/23 12:02:12;;;;;;;1.83;1.30;;;;;;;;;;5125848;27;20043;-66
2023/12/23 12:04:38;;;;;;;2.83;1.45;;;;;;;;;;5125876;27;20429;-66
2023/12/23 12:07:04;;;;;;;2.45;1.00;;;;;;;;;;5124575;27;20039;-66
2023/12/23 12:09:30;;;;;;;1.73;1.02;;;;;;;;;;5106433;27;20041;-65
2023/12/23 12:11:56;;;;;;;2.22;1.48;;;;;;;;;;5124962;27;20174;-65
2023/12/23 12:14:23;;;;;;;2.13;1.42;;;;;;;;;;5125336;27;20567;-66
2023/12/23 12:16:49;;;;;;;1.55;1.10;;;;;;;;;;5105735;27;20035;-65
2023/12/23 12:19:16;;;;;;;3.03;1.48;;;;;;;;;;5123353;27;20072;-65
2023/12/23 12:21:43;;;;;;;1.05;0.90;;;;;;;;;;5123971;27;20047;-66
2023/12/23 12:24:10;;;;;;;1.55;1.10;;;;;;;;;;5105161;27;20063;-65
2023/12/23 12:26:36;;;;;;;2.45;1.23;;;;;;;;;;5071231;27;20124;-66
2023/12/23 12:29:03;;;;;;;1.42;0.90;;;;;;;;;;5065737;27;20935;-65
2023/12/23 12:31:31;;;;;;;1.83;1.10;;;;;;;;;;5104602;27;20047;-66
2023/12/23 12:33:58;;;;;;;1.55;0.90;;;;;;;;;;5105579;27;20043;-67
2023/12/23 12:36:24;;;;;;;1.58;0.95;;;;;;;;;;5122558;27;20500;-66
2023/12/23 12:38:50;;;;;;;2.08;1.08;;;;;;;;;;5125289;27;20039;-66
2023/12/23 12:41:16;;;;;;;3.13;0.93;;;;;;;;;;5124277;27;20066;-65
2023/12/23 12:43:43;;;;;;;1.38;0.95;;;;;;;;;;5121732;27;20458;-66
2023/12/23 12:46:10;;;;;;;6.40;1.65;;;;;;;;;;5104453;27;20375;-66
2023/12/23 12:48:36;;;;;;;5.13;1.33;;;;;;;;;;5123632;27;20603;-66
2023/12/23 12:51:02;;;;;;;2.78;1.40;;;;;;;;;;5119789;27;20043;-67
2023/12/23 12:53:30;;;;;;;2.53;1.48;;;;;;;;;;5124854;27;20019;-65
2023/12/23 12:55:56;;;;;;;2.90;1.60;;;;;;;;;;5104236;27;20054;-66
2023/12/23 12:58:22;;;;;;;3.58;1.75;;;;;;;;;;5124410;27;20043;-66
2023/12/23 13:00:50;;;;;;;9.77;3.03;;;;;;;;;;5124763;27;20039;-66
2023/12/23 13:03:17;;;;;;;4.72;2.08;;;;;;;;;;5106355;27;20043;-66
2023/12/23 13:05:43;;;;;;;6.40;1.80;;;;;;;;;;5103964;27;20972;-65
2023/12/23 13:08:09;;;;;;;5.50;2.10;;;;;;;;;;5120318;27;20431;-65
2023/12/23 13:10:35;;;;;;;4.30;1.92;;;;;;;;;;5123712;27;20043;-65
2023/12/23 13:13:02;;;;;;;6.43;2.00;;;;;;;;;;5105773;27;20042;-65
2023/12/23 13:15:28;;;;;;;7.95;2.65;;;;;;;;;;5123516;27;20381;-63
2023/12/23 13:17:54;;;;;;;7.47;3.05;;;;;;;;;;5124669;27;20031;-66
2023/12/23 13:20:20;;;;;;;7.95;2.97;;;;;;;;;;5123631;27;20084;-65
2023/12/23 13:22:46;;;;;;;6.60;2.70;;;;;;;;;;5123390;27;20059;-65
2023/12/23 13:25:12;;;;;;;7.97;3.38;;;;;;;;;;5103083;27;20317;-66
2023/12/23 13:27:39;;;;;;;11.90;2.83;;;;;;;;;;5121589;27;20442;-65
2023/12/23 13:30:05;;;;;;;9.02;3.30;;;;;;;;;;5120778;27;20039;-66
2023/12/23 13:32:32;;;;;;;7.75;2.75;;;;;;;;;;5105070;27;20043;-65
2023/12/23 13:35:00;;;;;;;9.82;3.15;;;;;;;;;;5123409;27;20039;-65
2023/12/23 13:37:27;;;;;;;6.78;3.13;;;;;;;;;;5123825;27;20057;-66
2023/12/23 13:39:53;;;;;;;8.63;2.97;;;;;;;;;;5122011;27;20479;-66
2023/12/23 13:42:19;;;;;;;7.72;3.08;;;;;;;;;;5105135;27;20398;-65
2023/12/23 13:44:46;;;;;;;11.20;3.67;;;;;;;;;;5123175;27;20078;-65
2023/12/23 13:47:13;;;;;;;11.65;2.80;;;;;;;;;;5123365;27;20069;-65
2023/12/23 13:49:39;;;;;;;10.10;3.05;;;;;;;;;;5122679;27;20634;-65
2023/12/23 13:52:05;;;;;;;8.60;3.10;;;;;;;;;;5122810;27;20518;-64
2023/12/23 13:54:32;;;;;;;7.32;3.88;;;;;;;;;;5122507;27;20047;-65
2023/12/23 13:56:58;;;;;;;9.27;3.10;;;;;;;;;;5124077;27;20031;-65
2023/12/23 13:59:24;;;;;;;11.77;2.95;;;;;;;;;;5123762;27;20047;-66
2023/12/23 14:01:50;;;;;;;8.07;3.03;;;;;;;;;;5124229;27;20045;-67
2023/12/23 14:04:16;;;;;;;12.73;4.05;;;;;;;;;;5123420;27;20085;-65
2023/12/23 14:06:42;;;;;;;10.73;3.30;;;;;;;;;;5123071;27;20142;-66
2023/12/23 14:09:09;;;;;;;9.60;3.83;;;;;;;;;;5103521;27;20505;-65
2023/12/23 14:11:35;;;;;;;16.52;4.45;;;;;;;;;;5123280;27;20115;-65
2023/12/23 14:14:01;;;;;;;15.88;3.97;;;;;;;;;;5123619;27;20039;-66
2023/12/23 14:16:29;;;;;;;9.35;3.45;;;;;;;;;;5103717;27;20039;-66
2023/12/23 14:18:55;;;;;;;15.60;3.78;;;;;;;;;;5123752;27;20095;-65
2023/12/23 14:21:21;;;;;;;12.73;3.83;;;;;;;;;;5122717;27;20139;-65
2023/12/23 14:23:47;;;;;;;7.57;3.22;;;;;;;;;;5121610;27;20575;-66
2023/12/23 14:26:13;;;;;;;11.25;4.28;;;;;;;;;;5122469;27;20043;-64
2023/12/23 14:28:39;;;;;;;6.55;3.05;;;;;;;;;;5104579;27;20506;-64
2023/12/23 14:31:06;;;;;;;18.15;5.05;;;;;;;;;;5104244;27;20035;-66
2023/12/23 14:33:32;;;;;;;16.60;4.07;;;;;;;;;;5104505;27;20425;-65
2023/12/23 14:35:59;;;;;;;14.93;3.33;;;;;;;;;;5122610;27;20035;-66
2023/12/23 14:38:26;;;;;;;12.63;3.45;;;;;;;;;;5124012;27;20122;-66